Airfield :
LOGIN :

Register | Disclaimer

   EN    FR    IT 

 










Legend :    VFR   Marginal VFR   IFR   Intensive IFR   Very Intensive IFR
Visi :
Ceiling :
>= 8 km
>= 3000ft
5 to 8 km
1000 to 3000 ft
1500m to 5 km
500 to 1000 ft
800 to 1500m
200 to 500 ft
< 800m
< 200 ft
Symbols :   Thunderstorms  Fog  Heavy snow  Heavy precipitations  Wind > 20 kt
SIGMETs :     Misc.  Thunderstorms  Icing  Turbulence  Mountain Waves  Volcanic Ashes






- Airport Elevation : 74 ft
- IATA code : EIN


EHEH - Eindhoven

CURRENT METAR :
  • 021725Z AUTO VRB02KT 9999 NCD 14/04 Q1029 BLU

EXPIRED METARs :
  • 021655Z AUTO 12003KT 090V150 9999 NCD 15/04 Q1028 BLU
  • 021633Z AUTO 12005KT 9999 NCD 15/04 Q1028 BLU
  • 021625Z AUTO 13005KT 9999 NCD 15/04 Q1028 BLU
  • 021557Z AUTO 12005KT 080V160 9999 NCD 16/05 Q1028 BLU
  • 021525Z AUTO 12004KT 080V150 9999 NCD 16/04 Q1028 BLU NOSIG
  • 021455Z AUTO 12006KT 050V170 9999 NCD 16/04 Q1029 BLU NOSIG

TAF TAF EHEH
Valid from the 02 at 12:00 until the 03 at 18:00 UTC


021136Z 0212/0318 12005KT CAVOK
BECMG 0220/0223 18004KT
TEMPO 0222/0309 4500 BR
PROB30
TEMPO 0300/0306 2000 BR MIFG



MET'MAP, your aeronautical weather chart ! - Copyright ORBIFLY December 2007 - Disclaimer

ORBIFLY MET'MAP TEAM :

Programming & Development : Alexandra Zaïnal
Concept & original design : Baudouin d'Aumeries
Assistance for programming : Marc-Olivier Méhu
Technical & hardware support : Manuel Goepfert

Contact : metmap@orbifly.com




SOURCES & CREDITS :

   NOAA